Time;durP1;ratioP1;P1;durP2;ratioP2;P2;SDS_P1;SDS_P2;PMS_P1;PMS_P2;Temp;Humidity;BMP_temperature;BMP_pressure;BME280_temperature;BME280_humidity;BME280_pressure;Samples;Min_cycle;Max_cycle;Signal;HPM_P1;HPM_P2
2024/04/05 00:00:43;;;;;;;30.85;4.30;;;;;;;16.36;74.96;100999.41;5033391;28;20033;-46
2024/04/05 00:03:09;;;;;;;27.75;4.07;;;;;;;16.74;73.30;101007.00;5034202;28;20540;-46
2024/04/05 00:05:34;;;;;;;29.48;4.25;;;;;;;16.55;73.94;101002.75;5033513;28;20043;-48
2024/04/05 00:08:00;;;;;;;27.67;4.55;;;;;;;16.69;73.17;100997.41;5032719;28;20037;-44
2024/04/05 00:10:25;;;;;;;26.80;4.57;;;;;;;16.56;73.50;100983.44;5034628;28;20046;-44
2024/04/05 00:12:51;;;;;;;31.80;4.60;;;;;;;16.32;75.45;100984.53;5034062;28;20119;-48
2024/04/05 00:15:16;;;;;;;27.20;4.47;;;;;;;15.90;76.54;100990.13;5033849;28;20040;-45
2024/04/05 00:17:44;;;;;;;30.80;4.55;;;;;;;16.36;76.24;100993.25;5032794;28;20437;-45
2024/04/05 00:20:10;;;;;;;23.77;4.30;;;;;;;16.60;75.37;100983.44;5034054;28;20030;-44
2024/04/05 00:22:36;;;;;;;27.63;4.70;;;;;;;16.51;75.84;100977.34;5033298;28;20033;-49
2024/04/05 00:25:01;;;;;;;30.65;4.35;;;;;;;16.36;76.43;100977.47;5033068;28;20484;-49
2024/04/05 00:27:28;;;;;;;22.92;4.38;;;;;;;16.43;77.62;100974.78;5032879;28;20068;-44
2024/04/05 00:29:54;;;;;;;29.30;4.30;;;;;;;16.42;77.39;100967.78;5033168;28;20514;-50
2024/04/05 00:32:20;;;;;;;22.55;4.40;;;;;;;16.03;78.91;100973.38;5033242;28;20033;-44
2024/04/05 00:34:45;;;;;;;31.35;4.28;;;;;;;16.40;78.25;100974.81;5032490;28;20053;-47
2024/04/05 00:37:11;;;;;;;24.88;4.43;;;;;;;16.51;77.79;100978.22;5033331;28;20079;-46
2024/04/05 00:39:36;;;;;;;23.48;3.92;;;;;;;16.36;78.55;100972.22;5032866;28;20029;-46
2024/04/05 00:42:02;;;;;;;24.23;4.40;;;;;;;16.51;77.59;100969.47;5033204;28;20036;-48
2024/04/05 00:44:30;;;;;;;19.80;3.53;;;;;;;16.58;76.97;100968.53;5032822;28;20033;-45
2024/04/05 00:46:56;;;;;;;25.33;3.70;;;;;;;16.62;76.75;100962.34;5032789;28;20045;-47
2024/04/05 00:49:22;;;;;;;22.48;3.50;;;;;;;16.16;78.54;100969.78;5033261;28;20037;-44
2024/04/05 00:51:47;;;;;;;22.50;3.72;;;;;;;16.64;77.35;100979.03;5032983;28;20029;-47
2024/04/05 00:54:13;;;;;;;23.25;3.58;;;;;;;16.82;76.47;100981.47;5032870;28;20038;-47
2024/04/05 00:56:38;;;;;;;20.23;3.60;;;;;;;16.77;76.14;100985.03;5031988;28;20573;-45
2024/04/05 00:59:04;;;;;;;19.73;3.70;;;;;;;16.76;76.52;100989.44;5032220;28;20026;-46
2024/04/05 01:01:29;;;;;;;25.27;3.97;;;;;;;16.56;76.49;100988.72;5031930;28;20038;-45
2024/04/05 01:03:55;;;;;;;18.85;3.42;;;;;;;16.26;78.60;100965.28;5030513;28;20034;-46
2024/04/05 01:06:21;;;;;;;18.52;3.25;;;;;;;16.50;77.48;100963.31;5032066;28;20079;-48
2024/04/05 01:08:47;;;;;;;16.08;2.70;;;;;;;16.60;76.71;100970.25;5031889;28;20045;-46
2024/04/05 01:11:12;;;;;;;19.00;3.10;;;;;;;16.72;76.54;100965.75;5033058;28;20041;-46
2024/04/05 01:13:38;;;;;;;17.02;3.03;;;;;;;16.84;76.01;100973.53;5033031;28;20124;-45
2024/04/05 01:16:06;;;;;;;17.20;3.03;;;;;;;16.64;76.96;100981.66;5031983;28;20069;-48
2024/04/05 01:18:32;;;;;;;18.50;3.25;;;;;;;16.61;77.12;100976.41;5031660;28;20037;-46
2024/04/05 01:20:59;;;;;;;19.80;2.92;;;;;;;16.64;77.19;100976.38;5030611;28;20037;-45
2024/04/05 01:23:28;;;;;;;22.58;3.20;;;;;;;16.69;77.25;100986.88;5032156;28;20025;-45
2024/04/05 01:25:53;;;;;;;24.50;3.42;;;;;;;16.56;77.62;100973.78;5031512;28;20038;-44
2024/04/05 01:28:19;;;;;;;17.73;3.30;;;;;;;16.72;76.98;100974.53;5032501;28;20045;-48
2024/04/05 01:30:45;;;;;;;24.50;3.88;;;;;;;16.72;77.12;100968.38;5031795;28;20041;-46
2024/04/05 01:33:10;;;;;;;16.65;3.50;;;;;;;16.82;76.61;100965.66;5031918;28;20041;-44
2024/04/05 01:35:38;;;;;;;24.52;4.18;;;;;;;16.65;77.44;100964.94;5030812;28;20036;-46
2024/04/05 01:38:03;;;;;;;25.05;3.42;;;;;;;16.57;77.51;100967.66;5032371;28;20056;-44
2024/04/05 01:40:29;;;;;;;20.77;3.60;;;;;;;16.68;77.25;100964.06;5031408;28;20396;-48
2024/04/05 01:42:54;;;;;;;22.33;4.00;;;;;;;16.78;76.93;100963.06;5032032;28;20033;-44
2024/04/05 01:45:20;;;;;;;25.38;3.58;;;;;;;16.53;78.06;100960.63;5031154;28;20261;-45
2024/04/05 01:47:46;;;;;;;22.27;3.72;;;;;;;16.73;77.38;100957.84;5031115;28;20041;-44
2024/04/05 01:50:14;;;;;;;24.05;3.78;;;;;;;16.61;77.72;100952.72;5031310;28;20022;-46
2024/04/05 01:52:39;;;;;;;18.45;4.07;;;;;;;16.60;78.00;100958.84;5030882;28;20037;-45
2024/04/05 01:55:04;;;;;;;27.02;4.18;;;;;;;16.70;77.47;100960.53;5031066;28;20451;-45
2024/04/05 01:57:33;;;;;;;23.33;3.58;;;;;;;16.44;78.29;100968.63;5030421;28;20082;-45
2024/04/05 01:59:59;;;;;;;28.52;4.30;;;;;;;16.58;78.11;100971.16;5031002;28;20037;-45
2024/04/05 02:02:24;;;;;;;24.85;4.15;;;;;;;16.63;78.10;100962.34;5031352;28;20034;-47
2024/04/05 02:04:53;;;;;;;29.58;4.82;;;;;;;16.70;77.70;100959.66;5030654;28;20033;-49
2024/04/05 02:07:22;;;;;;;25.85;4.53;;;;;;;16.79;77.36;100954.28;5031293;28;20159;-46
2024/04/05 02:09:48;;;;;;;29.90;5.40;;;;;;;16.61;77.41;100943.06;5030336;28;20087;-52
2024/04/05 02:12:13;;;;;;;24.88;4.80;;;;;;;16.58;78.07;100947.47;5031412;28;20083;-45
2024/04/05 02:14:39;;;;;;;25.85;5.40;;;;;;;16.62;77.58;100939.53;5031311;28;20523;-43
2024/04/05 02:17:04;;;;;;;25.05;5.13;;;;;;;16.72;77.04;100939.44;5032220;28;20404;-45
2024/04/05 02:19:29;;;;;;;23.83;4.85;;;;;;;16.74;77.04;100929.78;5031530;28;20111;-45
2024/04/05 02:21:55;;;;;;;25.77;4.80;;;;;;;16.71;77.40;100946.47;5031123;28;20033;-45
2024/04/05 02:24:20;;;;;;;22.10;5.15;;;;;;;16.58;77.55;100943.06;5031118;28;20060;-49
2024/04/05 02:26:45;;;;;;;23.73;4.90;;;;;;;16.78;76.96;100940.25;5030444;28;20041;-46
2024/04/05 02:29:11;;;;;;;27.23;5.10;;;;;;;16.77;77.03;100942.91;5030514;28;20033;-49
2024/04/05 02:31:36;;;;;;;23.08;5.10;;;;;;;16.67;77.55;100933.34;5031364;28;20033;-44
2024/04/05 02:34:03;;;;;;;23.48;4.53;;;;;;;16.73;76.97;100930.66;5031547;28;20141;-45
2024/04/05 02:36:29;;;;;;;28.10;4.97;;;;;;;16.67;77.14;100926.31;5030011;28;20040;-49
2024/04/05 02:38:54;;;;;;;21.30;4.35;;;;;;;16.66;77.18;100924.56;5031229;28;20033;-45
2024/04/05 02:41:19;;;;;;;23.48;4.43;;;;;;;16.52;77.60;100915.94;5031497;28;20116;-43
2024/04/05 02:43:45;;;;;;;21.83;4.25;;;;;;;16.54;77.78;100914.16;5031134;28;20040;-45
2024/04/05 02:46:10;;;;;;;25.20;4.80;;;;;;;16.69;77.45;100903.50;5032029;28;20134;-45
2024/04/05 02:48:35;;;;;;;22.75;4.13;;;;;;;16.50;77.69;100902.78;5032021;28;20047;-45
2024/04/05 02:51:00;;;;;;;25.73;4.60;;;;;;;16.63;77.42;100906.19;5031491;28;20414;-46
2024/04/05 02:53:26;;;;;;;22.33;3.90;;;;;;;16.74;77.09;100904.31;5030294;28;20069;-45
2024/04/05 02:55:52;;;;;;;24.00;4.38;;;;;;;16.62;77.58;100899.19;5029747;28;20567;-47
2024/04/05 02:58:17;;;;;;;26.75;4.63;;;;;;;16.75;77.46;100902.56;5030322;28;20033;-45
2024/04/05 03:00:42;;;;;;;25.05;4.10;;;;;;;16.65;77.00;100901.78;5029775;28;20060;-46
2024/04/05 03:03:08;;;;;;;20.40;4.30;;;;;;;16.77;77.24;100901.63;5030296;28;20045;-49
2024/04/05 03:05:33;;;;;;;21.80;4.22;;;;;;;16.78;76.88;100894.59;5029599;28;20550;-45
2024/04/05 03:07:59;;;;;;;24.60;4.40;;;;;;;16.66;77.54;100902.66;5030384;28;20507;-44
2024/04/05 03:10:24;;;;;;;18.48;4.10;;;;;;;16.73;77.82;100906.97;5030607;28;20034;-49
2024/04/05 03:12:52;;;;;;;20.13;4.13;;;;;;;16.67;77.82;100907.03;5031111;28;20120;-45
2024/04/05 03:15:18;;;;;;;20.33;3.80;;;;;;;16.90;77.06;100908.50;5031319;28;20033;-46
2024/04/05 03:17:43;;;;;;;16.23;3.60;;;;;;;16.85;77.31;100907.69;5031381;28;20129;-44
2024/04/05 03:20:12;;;;;;;21.45;4.47;;;;;;;16.86;77.08;100906.81;5031983;28;20029;-45
2024/04/05 03:22:38;;;;;;;20.33;4.43;;;;;;;16.80;77.34;100898.09;5031049;28;20026;-45
2024/04/05 03:25:04;;;;;;;17.77;3.80;;;;;;;16.92;77.49;100900.59;5030159;28;20488;-46
2024/04/05 03:27:29;;;;;;;21.45;4.45;;;;;;;16.66;78.06;100885.09;5027965;28;20045;-46
2024/04/05 03:29:54;;;;;;;17.63;4.28;;;;;;;16.82;77.95;100889.31;5030395;28;20551;-44
2024/04/05 03:32:20;;;;;;;21.30;4.65;;;;;;;16.70;78.87;100875.41;5030452;28;20075;-45
2024/04/05 03:34:48;;;;;;;18.95;3.85;;;;;;;16.97;77.90;100868.03;5029890;28;20068;-49
2024/04/05 03:37:14;;;;;;;18.50;4.38;;;;;;;17.06;77.11;100860.91;5030011;28;20084;-46
2024/04/05 03:39:39;;;;;;;15.63;3.90;;;;;;;17.07;77.30;100857.41;5029873;28;20037;-48
2024/04/05 03:42:05;;;;;;;17.38;4.22;;;;;;;16.99;77.64;100875.94;5030376;28;20040;-45
2024/04/05 03:44:30;;;;;;;21.20;4.15;;;;;;;17.05;77.53;100873.22;5028297;28;20371;-47
2024/04/05 03:46:56;;;;;;;18.60;4.22;;;;;;;17.06;77.43;100858.28;5028721;28;20038;-46
2024/04/05 03:49:22;;;;;;;20.83;3.95;;;;;;;17.03;77.70;100862.69;5029819;28;20034;-47
2024/04/05 03:51:47;;;;;;;24.80;4.80;;;;;;;16.95;78.55;100856.69;5029347;28;20353;-44
2024/04/05 03:54:13;;;;;;;18.30;4.03;;;;;;;16.94;78.37;100867.22;5030045;28;20526;-45
2024/04/05 03:56:39;;;;;;;19.27;4.30;;;;;;;16.85;79.10;100860.28;5029553;28;20457;-45
2024/04/05 03:59:04;;;;;;;17.70;4.57;;;;;;;16.97;78.65;100851.38;5029883;28;20030;-48
2024/04/05 04:01:29;;;;;;;21.63;4.75;;;;;;;17.08;78.16;100867.06;5029554;28;20129;-45
2024/04/05 04:03:55;;;;;;;19.83;4.18;;;;;;;17.05;78.15;100852.13;5029853;28;20069;-46
2024/04/05 04:06:21;;;;;;;18.40;4.63;;;;;;;16.74;79.25;100871.84;5029974;28;20026;-45
2024/04/05 04:08:47;;;;;;;19.02;4.22;;;;;;;17.04;78.42;100837.22;5029802;28;20041;-49
2024/04/05 04:11:12;;;;;;;25.27;4.95;;;;;;;16.98;78.42;100848.72;5029482;28;20034;-46
2024/04/05 04:13:37;;;;;;;19.67;4.40;;;;;;;17.06;78.12;100829.31;5028925;28;20041;-45
2024/04/05 04:16:03;;;;;;;22.45;4.70;;;;;;;16.95;78.64;100821.56;5029076;28;20116;-46
2024/04/05 04:18:29;;;;;;;18.90;3.90;;;;;;;16.99;78.19;100803.06;5029436;28;20087;-47
2024/04/05 04:20:54;;;;;;;22.75;4.97;;;;;;;16.91;78.22;100789.13;5030920;28;20088;-45
2024/04/05 04:23:20;;;;;;;17.65;4.38;;;;;;;16.69;79.26;100786.81;5031823;28;20160;-46
2024/04/05 04:25:46;;;;;;;17.48;4.10;;;;;;;16.97;78.38;100791.66;5029543;28;20042;-49
2024/04/05 04:28:11;;;;;;;17.20;4.38;;;;;;;16.78;78.57;100784.91;5030226;28;20120;-50
2024/04/05 04:30:37;;;;;;;18.08;4.20;;;;;;;16.85;78.98;100796.22;5030389;28;20407;-44
2024/04/05 04:33:02;;;;;;;20.40;4.75;;;;;;;16.81;79.47;100805.06;5030460;28;20037;-46
2024/04/05 04:35:28;;;;;;;20.90;4.47;;;;;;;16.70;80.23;100820.13;5028610;28;20486;-46
2024/04/05 04:37:53;;;;;;;18.83;4.18;;;;;;;16.81;79.80;100813.84;5029684;28;20076;-47
2024/04/05 04:40:20;;;;;;;19.40;4.40;;;;;;;16.80;80.49;100806.81;5031204;28;20029;-47
2024/04/05 04:42:45;;;;;;;19.48;4.30;;;;;;;17.04;79.20;100798.59;5033299;28;20033;-48
2024/04/05 04:45:10;;;;;;;15.35;3.90;;;;;;;17.11;78.83;100799.38;5033298;28;20047;-47
2024/04/05 04:47:37;;;;;;;21.15;4.75;;;;;;;17.08;78.65;100799.41;5031823;28;20408;-53
2024/04/05 04:50:04;;;;;;;17.75;4.57;;;;;;;16.96;78.43;100799.56;5032431;28;20038;-48
2024/04/05 04:52:29;;;;;;;16.55;4.35;;;;;;;16.88;79.39;100798.84;5033111;28;20103;-46
2024/04/05 04:54:56;;;;;;;16.90;4.38;;;;;;;17.01;78.36;100793.38;5034129;28;20672;-46
2024/04/05 04:57:23;;;;;;;13.82;4.32;;;;;;;17.03;78.00;100798.59;5033832;28;20053;-47
2024/04/05 04:59:48;;;;;;;16.73;3.97;;;;;;;17.03;77.77;100801.25;5032397;28;20026;-45
2024/04/05 05:02:13;;;;;;;19.95;4.57;;;;;;;16.94;78.15;100801.38;5032209;28;20037;-48
2024/04/05 05:04:38;;;;;;;17.50;4.05;;;;;;;16.91;78.44;100804.91;5031317;28;20033;-52
2024/04/05 05:07:06;;;;;;;18.35;4.30;;;;;;;16.88;78.45;100806.72;5032034;28;20057;-46
2024/04/05 05:09:31;;;;;;;14.55;3.97;;;;;;;16.86;78.39;100814.66;5031595;28;20033;-46
2024/04/05 05:11:57;;;;;;;12.38;3.85;;;;;;;16.85;78.57;100804.13;5032194;28;20403;-50
2024/04/05 05:14:23;;;;;;;18.10;3.63;;;;;;;16.80;79.10;100795.41;5032392;28;20428;-46
2024/04/05 05:16:48;;;;;;;19.90;4.20;;;;;;;16.87;78.87;100795.31;5031507;28;20381;-45
2024/04/05 05:19:14;;;;;;;17.65;4.00;;;;;;;16.88;78.94;100790.94;5031811;28;20083;-45
2024/04/05 05:21:39;;;;;;;15.38;3.80;;;;;;;16.89;79.44;100776.88;5031483;28;20042;-50
2024/04/05 05:24:05;;;;;;;15.65;3.97;;;;;;;16.82;79.24;100780.47;5030617;28;20040;-44
2024/04/05 05:26:30;;;;;;;19.25;4.60;;;;;;;16.88;79.04;100785.66;5031043;28;20041;-45
2024/04/05 05:28:56;;;;;;;15.55;3.80;;;;;;;16.89;78.88;100776.88;5030387;28;20048;-47
2024/04/05 05:31:21;;;;;;;15.32;3.83;;;;;;;16.74;79.26;100770.06;5031554;28;20404;-47
2024/04/05 05:33:47;;;;;;;18.30;3.78;;;;;;;16.85;79.19;100765.50;5030774;28;20044;-46
2024/04/05 05:36:13;;;;;;;19.25;4.10;;;;;;;16.90;78.62;100768.06;5031594;28;20418;-45
2024/04/05 05:38:39;;;;;;;18.50;4.13;;;;;;;16.86;79.10;100764.63;5031192;28;20033;-50
2024/04/05 05:41:04;;;;;;;13.63;4.10;;;;;;;16.89;79.74;100768.97;5031450;28;20033;-46
2024/04/05 05:43:29;;;;;;;19.83;4.85;;;;;;;17.00;79.68;100765.31;5031142;28;20030;-45
2024/04/05 05:45:55;;;;;;;16.63;4.78;;;;;;;17.09;80.56;100758.13;5031367;28;20044;-47
2024/04/05 05:48:20;;;;;;;17.20;4.80;;;;;;;17.16;80.42;100757.16;5031407;28;20038;-43
2024/04/05 05:50:46;;;;;;;15.95;4.60;;;;;;;17.01;81.40;100751.25;5030318;28;20497;-48
2024/04/05 05:53:11;;;;;;;13.90;4.82;;;;;;;17.40;79.84;100746.22;5031466;28;20087;-47
2024/04/05 05:55:37;;;;;;;13.77;4.40;;;;;;;17.75;78.82;100743.88;5030523;28;20102;-49
2024/04/05 05:58:02;;;;;;;19.63;4.95;;;;;;;17.65;78.10;100734.41;5031109;28;20038;-46
2024/04/05 06:00:27;;;;;;;15.25;4.28;;;;;;;17.86;77.59;100730.50;5030333;28;20034;-46
2024/04/05 06:02:53;;;;;;;15.80;4.55;;;;;;;17.69;77.87;100722.88;5030795;28;20032;-47
2024/04/05 06:05:20;;;;;;;16.17;4.20;;;;;;;18.06;75.98;100719.56;5030697;28;20037;-47
2024/04/05 06:07:47;;;;;;;12.80;4.30;;;;;;;17.74;76.96;100721.06;5030295;28;20038;-51
2024/04/05 06:10:13;;;;;;;13.88;4.00;;;;;;;17.66;77.03;100717.69;5031055;28;20033;-46
2024/04/05 06:12:41;;;;;;;14.70;3.85;;;;;;;17.74;76.94;100715.78;5030661;28;20040;-46
2024/04/05 06:15:07;;;;;;;15.40;4.10;;;;;;;17.63;77.24;100707.19;5030349;28;20120;-45
2024/04/05 06:17:35;;;;;;;15.15;4.20;;;;;;;17.90;75.99;100695.25;5030488;28;20044;-46
2024/04/05 06:20:01;;;;;;;12.90;3.72;;;;;;;17.91;76.00;100693.50;5030796;28;20029;-48
2024/04/05 06:22:27;;;;;;;11.27;3.85;;;;;;;17.84;76.14;100704.16;5031614;28;20041;-46
2024/04/05 06:24:53;;;;;;;17.48;3.80;;;;;;;17.71;76.80;100702.66;5032057;28;20029;-47
2024/04/05 06:27:19;;;;;;;14.15;3.70;;;;;;;17.89;76.56;100684.72;5032109;28;20440;-44
2024/04/05 06:29:53;;;;;;;16.17;3.75;;;;;;;18.18;75.13;100682.38;5031071;28;20036;-46
2024/04/05 06:32:18;;;;;;;14.30;3.33;;;;;;;18.27;74.68;100665.50;5030782;28;20037;-45
2024/04/05 06:34:44;;;;;;;18.75;4.03;;;;;;;18.14;75.23;100660.47;5029806;28;20688;-43
2024/04/05 06:37:13;;;;;;;14.77;3.53;;;;;;;18.01;76.02;100666.91;5030431;28;20033;-46
2024/04/05 06:39:40;;;;;;;13.57;3.75;;;;;;;18.09;75.76;100656.19;5028760;28;20033;-48
2024/04/05 06:42:06;;;;;;;14.55;3.75;;;;;;;17.94;76.36;100657.38;5030187;28;20057;-46
2024/04/05 06:44:35;;;;;;;14.60;4.07;;;;;;;17.96;76.31;100649.44;5029719;28;20464;-46
2024/04/05 06:47:03;;;;;;;13.27;4.30;;;;;;;18.03;76.02;100636.09;5030025;28;20399;-46
2024/04/05 06:49:29;;;;;;;14.52;4.20;;;;;;;17.92;76.14;100630.19;5030119;28;20044;-47
2024/04/05 06:51:54;;;;;;;16.73;4.60;;;;;;;17.98;75.57;100630.06;5031032;28;20037;-46
2024/04/05 06:54:19;;;;;;;14.63;4.45;;;;;;;18.17;74.07;100622.63;5030053;28;20045;-48
2024/04/05 06:56:45;;;;;;;19.83;4.70;;;;;;;17.94;75.23;100628.34;5029228;28;20052;-48
2024/04/05 06:59:10;;;;;;;12.95;4.20;;;;;;;17.90;76.23;100621.41;5028867;28;20030;-46
2024/04/05 07:01:35;;;;;;;13.68;4.53;;;;;;;17.96;75.78;100615.13;5029347;28;20124;-49
2024/04/05 07:04:01;;;;;;;15.85;4.38;;;;;;;17.39;78.00;100610.06;5029502;28;20423;-45
2024/04/05 07:06:26;;;;;;;15.70;4.18;;;;;;;17.80;76.78;100607.56;5029817;28;20045;-47
2024/04/05 07:08:51;;;;;;;14.75;4.15;;;;;;;17.86;76.76;100584.59;5029634;28;20160;-45
2024/04/05 07:11:17;;;;;;;13.02;4.10;;;;;;;18.20;75.20;100582.94;5030500;28;20037;-45
2024/04/05 07:13:43;;;;;;;12.18;4.28;;;;;;;18.19;75.11;100587.34;5029862;28;20634;-45
2024/04/05 07:16:11;;;;;;;13.65;4.05;;;;;;;18.02;75.29;100581.59;5029634;28;20121;-47
2024/04/05 07:18:37;;;;;;;16.17;4.25;;;;;;;18.01;75.40;100576.34;5029544;28;20033;-46
2024/04/05 07:21:03;;;;;;;17.23;4.32;;;;;;;18.08;75.39;100567.41;5030061;28;20029;-48
2024/04/05 07:23:29;;;;;;;12.18;3.85;;;;;;;18.01;75.01;100568.44;5029725;28;20037;-49
2024/04/05 07:25:55;;;;;;;12.75;3.92;;;;;;;17.98;75.29;100574.66;5030109;28;20496;-45
2024/04/05 07:28:22;;;;;;;12.45;3.80;;;;;;;18.30;73.97;100605.59;5029958;28;20116;-45
2024/04/05 07:30:47;;;;;;;16.70;4.05;;;;;;;18.12;74.35;100600.72;5029389;28;20037;-44
2024/04/05 07:33:13;;;;;;;12.60;3.33;;;;;;;18.17;74.39;100591.81;5029735;28;20395;-53
2024/04/05 07:35:40;;;;;;;10.95;3.38;;;;;;;18.17;74.58;100581.28;5028914;28;20041;-45
2024/04/05 07:38:06;;;;;;;10.77;3.63;;;;;;;17.75;76.78;100564.56;5029582;28;20463;-48
2024/04/05 07:40:34;;;;;;;12.30;3.60;;;;;;;18.02;75.90;100565.75;5028974;28;20125;-51
2024/04/05 07:43:00;;;;;;;8.70;2.85;;;;;;;17.82;76.65;100560.91;5029733;28;20029;-47
2024/04/05 07:45:25;;;;;;;9.00;2.90;;;;;;;18.07;76.50;100570.94;5029506;28;20048;-46
2024/04/05 07:47:51;;;;;;;10.43;3.50;;;;;;;17.98;76.65;100569.38;5028995;28;20030;-45
2024/04/05 07:50:21;;;;;;;12.77;3.20;;;;;;;17.86;77.06;100560.88;5029753;28;20507;-44
2024/04/05 07:52:55;;;;;;;10.10;2.97;;;;;;;18.03;76.61;100556.09;5029449;28;20096;-47
2024/04/05 07:55:21;;;;;;;11.13;2.90;;;;;;;18.13;76.32;100566.38;5029391;28;20102;-45
2024/04/05 07:57:47;;;;;;;10.05;3.42;;;;;;;18.00;76.71;100578.09;5029279;28;20445;-44
2024/04/05 08:00:15;;;;;;;12.32;3.25;;;;;;;18.08;76.89;100562.13;5029795;28;20120;-47
2024/04/05 08:02:48;;;;;;;10.73;2.97;;;;;;;18.12;76.65;100575.19;5029170;28;20083;-44
2024/04/05 08:05:14;;;;;;;13.80;2.80;;;;;;;18.03;76.79;100574.53;5031156;28;20037;-45
2024/04/05 08:07:40;;;;;;;13.20;3.08;;;;;;;17.97;76.91;100565.00;5030829;28;20037;-44
2024/04/05 08:10:07;;;;;;;7.65;2.65;;;;;;;18.05;76.57;100583.31;5031113;28;20037;-44
2024/04/05 08:12:33;;;;;;;9.73;2.90;;;;;;;18.07;76.45;100568.28;5030517;28;20037;-49
2024/04/05 08:14:58;;;;;;;14.57;3.00;;;;;;;17.84;76.99;100576.72;5034128;28;20068;-45
2024/04/05 08:17:23;;;;;;;11.68;3.20;;;;;;;18.01;76.71;100589.53;5035209;28;20116;-44
2024/04/05 08:19:52;;;;;;;13.20;3.30;;;;;;;17.78;78.12;100588.25;5033637;28;20029;-47
2024/04/05 08:22:17;;;;;;;10.00;3.08;;;;;;;17.80;78.35;100588.22;5034090;28;20044;-48
2024/04/05 08:24:42;;;;;;;9.63;3.15;;;;;;;17.80;78.47;100593.50;5034651;28;20034;-46
2024/04/05 08:27:08;;;;;;;13.02;3.47;;;;;;;18.02;77.31;100599.19;5035363;28;20034;-46
2024/04/05 08:29:34;;;;;;;9.60;2.97;;;;;;;18.01;78.12;100592.16;5034191;28;20111;-47
2024/04/05 08:31:59;;;;;;;12.52;3.05;;;;;;;17.89;78.53;100597.69;5033499;28;20108;-50
2024/04/05 08:34:25;;;;;;;9.65;3.22;;;;;;;17.99;77.95;100596.63;5033275;28;20786;-46
2024/04/05 08:36:51;;;;;;;7.50;2.80;;;;;;;17.98;78.38;100598.41;5032443;28;20491;-47
2024/04/05 08:39:20;;;;;;;11.27;2.75;;;;;;;17.87;78.85;100596.88;5032975;28;20503;-45
2024/04/05 08:41:48;;;;;;;11.10;3.00;;;;;;;18.10;77.77;100594.63;5032559;28;20671;-46
2024/04/05 08:44:15;;;;;;;7.15;2.75;;;;;;;18.17;77.00;100602.38;5033028;28;20041;-48
2024/04/05 08:46:41;;;;;;;9.70;2.78;;;;;;;17.96;77.45;100596.69;5032584;28;20038;-49
2024/04/05 08:49:07;;;;;;;8.73;2.60;;;;;;;18.00;77.96;100619.44;5032806;28;20079;-49
2024/04/05 08:51:37;;;;;;;8.48;2.80;;;;;;;17.73;79.11;100608.59;5032524;28;20033;-49
2024/04/05 08:54:03;;;;;;;9.52;2.60;;;;;;;17.68;79.25;100607.81;5032702;28;20500;-47
2024/04/05 08:56:29;;;;;;;9.90;3.00;;;;;;;17.69;79.84;100608.66;5031879;28;20064;-48
2024/04/05 08:58:54;;;;;;;11.02;2.97;;;;;;;17.59;80.26;100604.44;5032803;28;20124;-46
2024/04/05 09:01:24;;;;;;;8.45;2.90;;;;;;;17.82;79.74;100600.47;5033054;28;20594;-46
2024/04/05 09:03:50;;;;;;;6.95;2.50;;;;;;;18.01;79.42;100600.09;5031993;28;20026;-45
2024/04/05 09:06:16;;;;;;;9.93;2.80;;;;;;;18.15;79.06;100605.94;5032265;28;20036;-45
2024/04/05 09:08:46;;;;;;;7.90;2.60;;;;;;;18.03;79.45;100614.13;5031960;28;20041;-48
2024/04/05 09:11:19;;;;;;;10.35;2.75;;;;;;;18.12;78.62;100603.34;5031915;28;20037;-46
2024/04/05 09:13:56;;;;;;;8.00;2.70;;;;;;;17.89;79.94;100602.97;5031715;28;20385;-45
2024/04/05 09:16:26;;;;;;;8.75;2.70;;;;;;;18.11;79.03;100597.19;5032392;28;20044;-47
2024/04/05 09:18:52;;;;;;;6.70;2.60;;;;;;;18.15;79.23;100588.34;5032860;28;20111;-45
2024/04/05 09:21:18;;;;;;;6.45;2.80;;;;;;;17.94;80.02;100577.38;5032692;28;20116;-46
2024/04/05 09:23:49;;;;;;;8.23;2.60;;;;;;;17.78;80.00;100569.78;5031661;28;20033;-48
2024/04/05 09:26:24;;;;;;;9.40;2.50;;;;;;;18.28;79.13;100567.81;5031192;28;20040;-47
2024/04/05 09:29:03;;;;;;;9.70;2.50;;;;;;;18.18;78.89;100574.19;5032220;28;20033;-44
2024/04/05 09:31:29;;;;;;;5.38;2.33;;;;;;;18.48;77.53;100575.28;5032149;28;20070;-47
2024/04/05 09:34:09;;;;;;;5.72;2.20;;;;;;;17.89;79.05;100572.19;5032041;28;20037;-45
2024/04/05 09:36:38;;;;;;;7.25;2.45;;;;;;;18.66;77.71;100579.28;5031902;28;20484;-46
2024/04/05 09:39:13;;;;;;;9.05;2.42;;;;;;;18.98;76.26;100576.69;5032376;28;20033;-46
2024/04/05 09:41:39;;;;;;;4.53;2.10;;;;;;;19.60;74.75;100575.03;5031635;28;20103;-45
2024/04/05 09:44:07;;;;;;;6.88;2.30;;;;;;;19.13;74.08;100570.16;5031506;28;20041;-47
2024/04/05 09:46:33;;;;;;;7.03;2.28;;;;;;;19.25;73.61;100573.34;5031156;28;20076;-49
2024/04/05 09:49:01;;;;;;;6.88;1.90;;;;;;;19.22;72.92;100565.47;5032751;28;20115;-47
2024/04/05 09:51:39;;;;;;;5.60;2.10;;;;;;;19.18;73.92;100552.38;5031913;28;20739;-47
2024/04/05 09:54:10;;;;;;;7.90;2.10;;;;;;;19.45;72.23;100543.72;5031867;28;20034;-50
2024/04/05 09:56:38;;;;;;;7.30;2.40;;;;;;;19.64;72.06;100542.28;5030562;28;20415;-45
2024/04/05 09:59:17;;;;;;;7.75;2.38;;;;;;;19.53;72.13;100533.81;5031125;28;20140;-46
2024/04/05 10:01:46;;;;;;;6.43;2.20;;;;;;;19.48;71.66;100537.50;5031446;28;20045;-45
2024/04/05 10:04:12;;;;;;;6.97;2.10;;;;;;;19.47;71.95;100533.97;5031593;28;20037;-49
2024/04/05 10:06:38;;;;;;;6.28;2.30;;;;;;;19.84;70.89;100523.19;5030619;28;20030;-48
2024/04/05 10:09:34;;;;;;;5.35;2.08;;;;;;;19.51;70.59;100514.50;5029689;28;20120;-44
2024/04/05 10:12:11;;;;;;;6.50;2.20;;;;;;;19.92;69.79;100522.97;5024242;28;20450;-49
2024/04/05 10:14:36;;;;;;;7.18;2.10;;;;;;;19.68;70.32;100506.94;5030157;28;20042;-45
2024/04/05 10:17:09;;;;;;;9.35;2.20;;;;;;;19.64;71.01;100517.66;5030648;28;20112;-48
2024/04/05 10:19:38;;;;;;;5.75;2.22;;;;;;;19.80;70.49;100527.72;5030407;28;20404;-49
2024/04/05 10:22:10;;;;;;;6.55;2.10;;;;;;;19.59;70.63;100530.09;5030888;28;20078;-46
2024/04/05 10:24:36;;;;;;;7.30;2.10;;;;;;;19.66;69.12;100542.25;5028104;22;20038;-82
2024/04/05 10:27:05;;;;;;;6.35;2.25;;;;;;;19.69;69.36;100544.81;5018582;28;20034;-83
2024/04/05 10:29:33;;;;;;;7.65;1.98;;;;;;;19.53;69.60;100544.38;5016551;28;20045;-83
2024/04/05 10:32:19;;;;;;;6.75;2.20;;;;;;;19.03;71.99;100540.44;5016172;28;20600;-83
2024/04/05 10:34:44;;;;;;;6.97;2.10;;;;;;;19.66;69.65;100551.06;4999704;28;20042;-81
2024/04/05 10:37:14;;;;;;;7.97;2.60;;;;;;;19.71;68.88;100543.84;5016392;28;20042;-82
2024/04/05 10:39:42;;;;;;;4.40;2.05;;;;;;;19.57;70.58;100548.69;5016302;28;20037;-84
2024/04/05 10:42:08;;;;;;;4.38;2.15;;;;;;;19.66;69.94;100564.28;5006900;28;20030;-82
2024/04/05 10:44:33;;;;;;;8.40;2.40;;;;;;;18.74;72.59;100572.03;5024334;28;20038;-81
2024/04/05 10:46:59;;;;;;;4.78;2.17;;;;;;;18.60;74.64;100575.03;5024436;28;20121;-82
2024/04/05 10:49:25;;;;;;;8.48;2.50;;;;;;;18.36;76.19;100583.50;5024855;28;20029;-84
2024/04/05 10:51:57;;;;;;;10.82;2.47;;;;;;;18.38;76.79;100589.59;5024947;28;20051;-83
2024/04/05 10:54:23;;;;;;;10.57;2.70;;;;;;;18.30;77.39;100586.28;5022716;28;20041;-83
2024/04/05 10:56:48;;;;;;;8.25;2.42;;;;;;;18.37;77.88;100596.63;5023413;28;20286;-83
2024/04/05 10:59:18;;;;;;;10.73;3.00;;;;;;;18.18;79.45;100595.31;5023955;28;20031;-84
2024/04/05 11:01:47;;;;;;;7.90;2.70;;;;;;;18.12;80.00;100611.25;5023517;28;20379;-84
2024/04/05 11:04:13;;;;;;;7.75;2.60;;;;;;;18.17;79.18;100617.34;5024946;28;20034;-83
2024/04/05 11:06:41;;;;;;;6.70;2.72;;;;;;;17.75;81.26;100614.66;5006575;28;20042;-82
2024/04/05 11:09:14;;;;;;;8.75;2.80;;;;;;;18.41;79.75;100615.91;5007402;28;20037;-83
2024/04/05 11:11:40;;;;;;;6.68;2.65;;;;;;;17.44;82.20;100638.06;5007570;28;20030;-82
2024/04/05 11:14:06;;;;;;;6.63;2.78;;;;;;;17.68;83.22;100644.72;5019368;28;20554;-83
2024/04/05 11:16:58;;;;;;;8.00;2.50;;;;;;;17.30;83.80;100652.41;5020359;28;20026;-84